Thursday, August 16, 2018, 12:00 AM EDT
Back to Local

KLNS, Lancaster Airport

Location: Lititz, PA, United States Lat: 40.117
Local Time: 12:00 AM EDT ( 4:00 GMT) Lon: -76.3
Time Zone: US/Eastern Elev: 403 ft

Show me the last for .
Show Coded

Time T Td Feel RH Dir Speed Gust Alt SLP Vis Weather Sky Remarks
2018-08-15 22:53 76 70 80 81 280° 6 - 30.04 30.03 10 CLR None
2018-08-15 21:53 78 70 82 76 270° 5 - 30.03 30.02 10 CLR None
2018-08-15 20:53 79 70 83 74 260° 7 - 30.01 30.00 10 CLR None
2018-08-15 19:53 82 69 86 64 230° 6 - 29.99 29.98 10 CLR 6-hr Min Temp (8pm): 82.0°F
6-hr Max Temp (8pm): 87.1°F
2018-08-15 18:53 85 70 90 61 250° 10 - 29.98 29.96 10 CLR None
2018-08-15 17:53 85 69 89 59 270° 10 - 29.98 29.97 10 CLR None
2018-08-15 16:53 87 71 93 59 270° 9 - 29.98 29.97 10 CLR None
2018-08-15 15:53 87 69 92 55 270° 12 - 29.98 29.97 10 CLR None
2018-08-15 14:53 86 70 91 59 300° 9 - 29.99 29.98 10 FEW048 None
2018-08-15 13:53 86 70 91 59 290° 14 - 29.99 29.98 10 FEW045 None
2018-08-15 12:53 84 70 89 62 310° 10 - 30.00 - 10 FEW040 None
2018-08-15 11:53 81 70 85 69 290° 12 - 30.00 - 10 CLR None
2018-08-15 10:53 80 70 84 71 290° 8 - 30.00 29.99 10 CLR None
2018-08-15 09:53 77 69 80 76 290° 12 - 30.00 29.99 10 CLR None
2018-08-15 08:53 74 68 78 81 290° 12 - 29.99 29.98 10 CLR None
2018-08-15 07:53 70 67 - 90 270° 9 - 29.98 29.97 9 CLR 24-hr Precip Total (8am): 0.17"
6-hr Min Temp (8am): 66.9°F
6-hr Max Temp (8am): 71.1°F
2018-08-15 06:53 68 66 - 93 290° 8 - 29.96 29.95 7 CLR None
2018-08-15 05:53 68 66 - 93 290° 9 - 29.95 29.94 9 CLR None
2018-08-15 04:53 68 66 - 93 280° 8 - 29.94 29.92 9 CLR None
2018-08-15 03:53 69 66 - 90 280° 9 - 29.93 29.92 10 CLR None
2018-08-15 02:53 70 67 - 90 270° 8 - 29.93 29.92 10 CLR None
2018-08-15 01:53 71 67 76 86 270° 9 - 29.93 29.92 10 SCT100 1-hr Precip Total: Trace
6-hr Precip Total (2am): 0.00"
6-hr Min Temp (2am): 70.0°F
6-hr Max Temp (2am): 73.9°F
2018-08-15 00:53 70 67 - 90 300° 7 - 29.93 29.92 10 FEW120 24-hr Min Temp (1am): 68.0°F
24-hr Max Temp (1am): 81.0°F

Support USWX by starting your Amazon purchase here.